Tri-State/Milton J. Ferguson Field
KHTS : now visible

Airfield :











YOU CAN JOIN US ON...

 
LOGIN :

Register | Disclaimer

   EN    FR    IT 

 









Legend :    VFR   Marginal VFR   IFR   Intensive IFR   Very Intensive IFR
Visi :
Ceiling :
>= 8 km
>= 3000ft
5 to 8 km
1000 to 3000 ft
1500m to 5 km
500 to 1000 ft
800 to 1500m
200 to 500 ft
< 800m
< 200 ft
Symbols :   Thunderstorms  Fog  Heavy snow  Heavy precipitations  Wind > 20 kt






- Airport Elevation : 828 ft
- IATA code : HTS


KHTS - Tri-State/Milton J. Ferguson Field

CURRENT METAR :
  • 030851Z 05005KT 10SM -RA BKN110 22/19 A3004 RMK AO2 RAB05 SLP163 P0001 60001 T02220194 55001

EXPIRED METARs :
  • 030751Z 00000KT 10SM OVC110 23/21 A3004 RMK AO2 SLP163 T02280211
  • 030700Z 00000KT 10SM FEW008 BKN120 22/21 A3003 RMK AO2 T02220211
  • 030651Z 03004KT 9SM FEW050 BKN120 22/21 A3003 RMK AO2 SLP161 T02220211

TAF KHTS
Valid from the 03 at 08:00 until the 04 at 06:00 UTC


030828Z 0308/0406 00000KT 6SM -SHRA BR OVC045
TEMPO 0308/0312 4SM -SHRA BR FEW008 OVC025
FM031200 VRB03KT P6SM BKN060
FM031600 05004KT P6SM FEW090
FM032100 04005KT P6SM FEW150
FM040100 00000KT P6SM FEW250
KZID FIR / North America



MET'MAP, your aeronautical weather chart ! - Copyright ORBIFLY December 2007 - Disclaimer

ORBIFLY MET'MAP TEAM :

Programming & Development : Alexandra Zaïnal
Original concept : Baudouin d'Aumeries
Technical & hardware support : Manuel Goepfert
Assistance : Marc-Olivier Méhu




SOURCES & CREDITS :

   NOAA       Earth
Advisory